Time;durP1;ratioP1;P1;durP2;ratioP2;P2;SDS_P1;SDS_P2;PMS_P1;PMS_P2;Temp;Humidity;BMP_temperature;BMP_pressure;BME280_temperature;BME280_humidity;BME280_pressure;Samples;Min_cycle;Max_cycle;Signal;HPM_P1;HPM_P2
2022/10/02 00:00:04;;;;;;;17.77;4.93;;;10.90;99.90;;;;;;5032618;28;20377;-81
2022/10/02 00:02:36;;;;;;;20.07;5.00;;;10.90;99.90;;;;;;5032841;28;20126;-82
2022/10/02 00:05:13;;;;;;;18.30;5.03;;;10.90;99.90;;;;;;5033505;28;20064;-80
2022/10/02 00:07:45;;;;;;;20.85;5.03;;;11.00;99.90;;;;;;5050804;28;20071;-82
2022/10/02 00:10:20;;;;;;;20.70;5.00;;;11.00;99.90;;;;;;5049603;28;20049;-82
2022/10/02 00:12:52;;;;;;;21.90;5.25;;;11.00;99.90;;;;;;5032694;28;20055;-81
2022/10/02 00:15:21;;;;;;;19.35;5.13;;;11.00;99.90;;;;;;5016801;28;20043;-82
2022/10/02 00:17:51;;;;;;;17.30;4.50;;;11.10;99.90;;;;;;5024473;28;20083;-83
2022/10/02 00:20:20;;;;;;;20.75;5.07;;;11.10;99.90;;;;;;5031310;28;20065;-83
2022/10/02 00:22:55;;;;;;;16.30;4.55;;;11.10;99.90;;;;;;5034301;28;20052;-84
2022/10/02 00:25:39;;;;;;;16.92;4.70;;;11.10;99.90;;;;;;5020241;28;20052;-84
2022/10/02 00:28:10;;;;;;;21.23;5.13;;;11.10;99.90;;;;;;5021918;28;20550;-82
2022/10/02 00:31:04;;;;;;;17.83;4.60;;;11.20;99.90;;;;;;5025681;28;20128;-84
2022/10/02 00:33:59;;;;;;;16.85;4.07;;;11.20;99.90;;;;;;5011885;28;20057;-80
2022/10/02 00:36:33;;;;;;;18.13;4.50;;;11.20;99.90;;;;;;5035365;28;20049;-83
2022/10/02 00:39:13;;;;;;;17.75;4.28;;;11.20;99.90;;;;;;5053453;28;20055;-83
2022/10/02 00:42:05;;;;;;;14.63;3.75;;;11.30;99.90;;;;;;5053173;28;20048;-82
2022/10/02 00:44:30;;;;;;;18.73;4.78;;;11.20;99.90;;;;;;5035137;28;20041;-81
2022/10/02 00:47:21;;;;;;;20.08;4.47;;;11.30;99.90;;;;;;5007715;28;20045;-82
2022/10/02 00:50:27;;;;;;;17.58;4.05;;;11.30;99.90;;;;;;5040832;28;20052;-82
2022/10/02 00:53:16;;;;;;;13.98;4.10;;;11.30;99.90;;;;;;5042231;28;20045;-84
2022/10/02 00:55:47;;;;;;;17.23;4.05;;;11.30;99.90;;;;;;5021753;28;20107;-80
2022/10/02 00:58:38;;;;;;;18.08;4.00;;;11.30;99.90;;;;;;5018306;28;20059;-82
2022/10/02 01:01:21;;;;;;;13.57;3.92;;;11.30;99.90;;;;;;5034048;28;20041;-84
2022/10/02 01:03:55;;;;;;;21.50;4.40;;;11.30;99.90;;;;;;5049659;28;20032;-82
2022/10/02 01:06:26;;;;;;;20.33;4.18;;;11.20;99.90;;;;;;5035047;28;20373;-83
2022/10/02 01:08:53;;;;;;;13.85;3.95;;;11.20;99.90;;;;;;5034972;28;20128;-81
2022/10/02 01:11:21;;;;;;;20.00;4.53;;;11.20;99.90;;;;;;5025690;28;20442;-80
2022/10/02 01:13:47;;;;;;;18.60;5.30;;;11.10;99.90;;;;;;5029835;28;20087;-81
2022/10/02 01:16:14;;;;;;;22.27;4.90;;;11.10;99.90;;;;;;5052397;28;20056;-81
2022/10/02 01:18:44;;;;;;;16.88;4.68;;;11.10;99.90;;;;;;5034725;28;20493;-80
2022/10/02 01:21:36;;;;;;;16.77;4.43;;;11.10;99.90;;;;;;5034803;28;20053;-81
2022/10/02 01:24:15;;;;;;;15.85;4.47;;;11.10;99.90;;;;;;5052891;28;20669;-82
2022/10/02 01:26:41;;;;;;;16.83;4.78;;;11.10;99.90;;;;;;5034339;28;20052;-82
2022/10/02 01:29:07;;;;;;;23.35;4.80;;;11.10;99.90;;;;;;5050886;28;20465;-84
2022/10/02 01:31:35;;;;;;;16.33;4.50;;;11.10;99.90;;;;;;5014571;28;20064;-82
2022/10/02 01:34:01;;;;;;;19.02;4.70;;;11.10;99.90;;;;;;5027458;28;20500;-81
2022/10/02 01:36:27;;;;;;;19.60;4.50;;;11.10;99.90;;;;;;5025716;28;20492;-81
2022/10/02 01:38:54;;;;;;;15.40;4.38;;;11.10;99.90;;;;;;5029612;28;20428;-81
2022/10/02 01:41:19;;;;;;;19.65;4.90;;;11.10;99.90;;;;;;5033795;28;20060;-81
2022/10/02 01:43:54;;;;;;;14.55;4.10;;;11.10;99.90;;;;;;5034354;28;20048;-81
2022/10/02 01:46:31;;;;;;;17.58;4.30;;;11.10;99.90;;;;;;5031997;28;20049;-81
2022/10/02 01:49:22;;;;;;;17.02;4.40;;;11.10;99.90;;;;;;5028769;28;20491;-80
2022/10/02 01:52:14;;;;;;;18.08;4.28;;;11.00;99.90;;;;;;5023688;28;20057;-79
2022/10/02 01:54:56;;;;;;;19.33;4.65;;;11.00;99.90;;;;;;5051807;28;20044;-80
2022/10/02 01:57:22;;;;;;;;;;;11.00;99.90;;;;;;5034377;28;20048;-82
2022/10/02 02:00:06;;;;;;;14.63;4.00;;;11.00;99.90;;;;;;5050990;28;19970;-81
2022/10/02 02:02:39;;;;;;;21.13;4.18;;;11.00;99.90;;;;;;5051504;28;20053;-80
2022/10/02 02:05:26;;;;;;;16.45;4.35;;;11.00;99.90;;;;;;5020935;28;20041;-80
2022/10/02 02:07:51;;;;;;;18.77;4.20;;;11.00;99.90;;;;;;5033954;28;20076;-81
2022/10/02 02:10:33;;;;;;;22.38;4.80;;;11.00;99.90;;;;;;5051760;28;20083;-82
2022/10/02 02:13:25;;;;;;;19.92;4.57;;;11.00;99.90;;;;;;5013646;28;20120;-79
2022/10/02 02:16:02;;;;;;;21.90;4.82;;;11.10;99.90;;;;;;5021942;28;20049;-83
2022/10/02 02:18:40;;;;;;;18.52;4.40;;;11.10;99.90;;;;;;5031874;28;20083;-81
2022/10/02 02:21:13;;;;;;;19.05;4.35;;;11.10;99.90;;;;;;5028400;28;20045;-80
2022/10/02 02:23:41;;;;;;;16.33;4.30;;;11.10;99.90;;;;;;5016886;28;20131;-79
2022/10/02 02:26:11;;;;;;;16.95;4.55;;;11.10;99.90;;;;;;5016580;28;20091;-84
2022/10/02 02:28:42;;;;;;;22.50;4.90;;;11.10;99.90;;;;;;5033865;28;20049;-81
2022/10/02 02:31:11;;;;;;;19.40;4.57;;;11.10;99.90;;;;;;5016067;28;20068;-81
2022/10/02 02:33:42;;;;;;;20.77;4.80;;;11.10;99.90;;;;;;5033810;28;20477;-80
2022/10/02 02:36:14;;;;;;;22.42;4.93;;;11.10;99.90;;;;;;5051127;28;20045;-80
2022/10/02 02:38:55;;;;;;;20.08;4.55;;;11.00;99.90;;;;;;5033598;28;20041;-80
2022/10/02 02:41:27;;;;;;;21.00;4.80;;;11.00;99.90;;;;;;5032662;28;20080;-80
2022/10/02 02:44:23;;;;;;;15.38;4.20;;;11.00;99.90;;;;;;5051285;28;20041;-79
2022/10/02 02:47:03;;;;;;;16.92;4.10;;;11.00;99.90;;;;;;5048071;28;20060;-79
2022/10/02 02:49:35;;;;;;;19.27;5.20;;;11.00;99.90;;;;;;5051644;28;20051;-79
2022/10/02 02:52:02;;;;;;;;;;;11.00;99.90;;;;;;5033232;28;20045;-80
2022/10/02 02:54:43;;;;;;;21.95;4.72;;;10.90;99.90;;;;;;5050230;28;19923;-80
2022/10/02 02:57:11;;;;;;;19.55;4.82;;;10.90;99.90;;;;;;5013123;28;20073;-79
2022/10/02 02:59:39;;;;;;;14.27;4.18;;;10.90;99.90;;;;;;5024883;28;20057;-82
2022/10/02 03:02:05;;;;;;;20.80;4.53;;;10.90;99.90;;;;;;5038133;28;20052;-81
2022/10/02 03:04:31;;;;;;;19.13;4.22;;;10.90;99.90;;;;;;5016848;28;20041;-78
2022/10/02 03:07:01;;;;;;;19.02;4.45;;;10.90;99.90;;;;;;5032857;28;20045;-80
2022/10/02 03:09:28;;;;;;;20.15;4.40;;;10.90;99.90;;;;;;5033430;28;20051;-81
2022/10/02 03:12:05;;;;;;;22.77;4.97;;;10.90;99.90;;;;;;5032096;28;20124;-79
2022/10/02 03:15:04;;;;;;;15.45;4.05;;;11.00;99.90;;;;;;5033516;28;20053;-79
2022/10/02 03:17:34;;;;;;;20.45;4.40;;;11.00;99.90;;;;;;4991401;28;20049;-79
2022/10/02 03:20:28;;;;;;;17.17;4.30;;;11.00;99.90;;;;;;5050854;28;20049;-81
2022/10/02 03:23:15;;;;;;;15.93;4.18;;;11.00;99.90;;;;;;5029599;28;20045;-82
2022/10/02 03:25:52;;;;;;;22.70;4.60;;;11.10;99.90;;;;;;5032817;28;20056;-82
2022/10/02 03:28:46;;;;;;;16.85;4.07;;;11.10;99.90;;;;;;5032608;28;20496;-82
2022/10/02 03:31:13;;;;;;;17.17;3.83;;;11.10;99.90;;;;;;5031925;28;20090;-79
2022/10/02 03:33:40;;;;;;;15.63;3.55;;;11.20;99.90;;;;;;5051028;28;20471;-80
2022/10/02 03:36:09;;;;;;;14.50;4.03;;;11.10;99.90;;;;;;5018426;28;20377;-82
2022/10/02 03:38:35;;;;;;;14.25;3.47;;;11.10;99.90;;;;;;5033230;28;20059;-80
2022/10/02 03:41:01;;;;;;;13.65;3.58;;;11.20;99.90;;;;;;5031872;28;20041;-77
2022/10/02 03:43:28;;;;;;;18.23;3.80;;;11.10;99.90;;;;;;5032842;28;20048;-82
2022/10/02 03:45:54;;;;;;;17.13;3.90;;;11.20;99.90;;;;;;5032561;28;20037;-81
2022/10/02 03:48:20;;;;;;;15.43;3.55;;;11.10;99.90;;;;;;5050490;28;20384;-79
2022/10/02 03:50:46;;;;;;;14.07;3.40;;;11.10;99.90;;;;;;5041500;28;20049;-79
2022/10/02 03:53:21;;;;;;;16.52;3.90;;;11.20;99.90;;;;;;5029704;28;20057;-80
2022/10/02 03:56:02;;;;;;;15.93;3.45;;;11.10;99.90;;;;;;5032885;28;20075;-80
2022/10/02 03:58:29;;;;;;;14.90;3.53;;;11.00;99.90;;;;;;5034552;28;20049;-79
2022/10/02 04:01:12;;;;;;;16.80;3.42;;;11.00;99.90;;;;;;5036155;28;20041;-79
2022/10/02 04:03:44;;;;;;;14.27;3.17;;;11.00;99.90;;;;;;5036431;28;20384;-81
2022/10/02 04:06:12;;;;;;;16.63;3.58;;;11.00;99.90;;;;;;5036460;28;20500;-80
2022/10/02 04:09:05;;;;;;;16.65;3.20;;;11.00;99.90;;;;;;5035768;28;20148;-80
2022/10/02 04:11:40;;;;;;;15.40;3.33;;;11.00;99.90;;;;;;5035979;28;20045;-80
2022/10/02 04:14:11;;;;;;;15.63;3.40;;;11.00;99.90;;;;;;5036846;28;20048;-81
2022/10/02 04:16:40;;;;;;;13.82;2.90;;;10.90;99.90;;;;;;5035403;28;20045;-77
2022/10/02 04:19:21;;;;;;;15.07;3.20;;;10.90;99.90;;;;;;5054257;28;20084;-79
2022/10/02 04:22:17;;;;;;;14.23;3.13;;;10.90;99.90;;;;;;5035976;28;20147;-79
2022/10/02 04:24:49;;;;;;;12.65;2.97;;;10.90;99.90;;;;;;5007549;28;20060;-76
2022/10/02 04:27:26;;;;;;;14.88;3.33;;;10.90;99.90;;;;;;5040063;28;20076;-78
2022/10/02 04:30:00;;;;;;;12.63;3.10;;;10.90;99.90;;;;;;5032805;28;20053;-79
2022/10/02 04:32:30;;;;;;;14.98;2.80;;;10.90;99.90;;;;;;5012372;28;20057;-81
2022/10/02 04:34:56;;;;;;;14.60;2.60;;;10.90;99.90;;;;;;5036350;28;20057;-80
2022/10/02 04:37:31;;;;;;;12.85;2.80;;;10.90;99.90;;;;;;5035600;28;20049;-81
2022/10/02 04:40:17;;;;;;;17.13;3.35;;;10.90;99.90;;;;;;5039869;28;20121;-79
2022/10/02 04:43:25;;;;;;;13.63;2.92;;;10.90;99.90;;;;;;5034256;28;20048;-78
2022/10/02 04:46:36;;;;;;;13.85;3.17;;;10.80;99.90;;;;;;5027557;28;20037;-79
2022/10/02 04:49:29;;;;;;;15.13;3.13;;;10.80;99.90;;;;;;5019643;28;20057;-82
2022/10/02 04:52:15;;;;;;;13.65;3.25;;;10.80;99.90;;;;;;5019218;28;20103;-77
2022/10/02 04:55:02;;;;;;;15.38;3.25;;;10.70;99.90;;;;;;5048312;28;20084;-79
2022/10/02 04:57:49;;;;;;;13.45;3.05;;;10.70;99.90;;;;;;5034954;28;20056;-79
2022/10/02 05:00:21;;;;;;;15.63;3.90;;;10.70;99.90;;;;;;5034917;28;20041;-77
2022/10/02 05:03:19;;;;;;;17.65;3.53;;;10.70;99.90;;;;;;5052061;28;20087;-79
2022/10/02 05:06:21;;;;;;;12.25;3.25;;;10.70;99.90;;;;;;5023435;28;20381;-78
2022/10/02 05:09:05;;;;;;;;;;;10.70;99.90;;;;;;5035260;28;20488;-79
2022/10/02 05:11:54;;;;;;;15.25;3.70;;;10.70;99.90;;;;;;5034836;28;19917;-77
2022/10/02 05:14:32;;;;;;;20.90;4.22;;;10.70;99.90;;;;;;5042026;28;20111;-78
2022/10/02 05:17:24;;;;;;;17.13;3.72;;;10.70;99.90;;;;;;5034226;28;20048;-79
2022/10/02 05:20:05;;;;;;;16.08;3.97;;;10.70;99.90;;;;;;5035101;28;20057;-80
2022/10/02 05:22:43;;;;;;;17.17;3.85;;;10.80;99.90;;;;;;5021661;28;20092;-79
2022/10/02 05:25:18;;;;;;;12.82;3.47;;;10.70;99.90;;;;;;5034697;28;20045;-80
2022/10/02 05:27:48;;;;;;;18.20;3.63;;;10.60;99.90;;;;;;5039192;28;20037;-80
2022/10/02 05:30:16;;;;;;;16.48;4.20;;;10.60;99.90;;;;;;5034297;28;20496;-79
2022/10/02 05:33:03;;;;;;;16.83;3.90;;;10.70;99.90;;;;;;5034373;28;20041;-80
2022/10/02 05:35:52;;;;;;;14.48;3.50;;;10.70;99.90;;;;;;5052712;28;20051;-79
2022/10/02 05:38:59;;;;;;;18.63;3.75;;;10.70;99.90;;;;;;5021223;28;20041;-80
2022/10/02 05:41:47;;;;;;;15.48;3.90;;;10.70;99.90;;;;;;5011057;28;20087;-80
2022/10/02 05:44:36;;;;;;;19.00;4.28;;;10.70;99.90;;;;;;5019954;28;20116;-78
2022/10/02 05:47:23;;;;;;;16.38;4.28;;;10.60;99.90;;;;;;5016157;28;20124;-81
2022/10/02 05:50:18;;;;;;;19.20;4.40;;;10.60;99.90;;;;;;5036760;28;20033;-80
2022/10/02 05:53:18;;;;;;;20.13;4.07;;;10.60;99.90;;;;;;5043984;28;20048;-81
2022/10/02 05:56:03;;;;;;;19.20;4.15;;;10.60;99.90;;;;;;5007795;28;20047;-79
2022/10/02 05:58:44;;;;;;;18.92;4.05;;;10.60;99.90;;;;;;5031586;28;20053;-78
2022/10/02 06:01:36;;;;;;;18.20;4.25;;;10.60;99.90;;;;;;5032016;28;20052;-80
2022/10/02 06:04:05;;;;;;;16.00;4.50;;;10.60;99.90;;;;;;5033897;28;20049;-79
2022/10/02 06:06:50;;;;;;;20.02;4.60;;;10.60;99.90;;;;;;5033604;28;20055;-80
2022/10/02 06:09:25;;;;;;;19.10;4.38;;;10.70;99.90;;;;;;5026477;28;20041;-80
2022/10/02 06:12:01;;;;;;;26.10;5.35;;;10.60;99.90;;;;;;5051175;28;20115;-81
2022/10/02 06:14:34;;;;;;;19.42;4.40;;;10.60;99.90;;;;;;5051228;28;20044;-79
2022/10/02 06:17:14;;;;;;;19.75;4.47;;;10.60;99.90;;;;;;5033211;28;20064;-80
2022/10/02 06:19:44;;;;;;;21.35;4.50;;;10.60;99.90;;;;;;5033444;28;20063;-79
2022/10/02 06:22:18;;;;;;;18.52;4.68;;;10.60;99.90;;;;;;5010532;28;20036;-80
2022/10/02 06:25:03;;;;;;;19.33;4.40;;;10.70;99.90;;;;;;5038292;28;20456;-79
2022/10/02 06:27:52;;;;;;;18.02;4.50;;;10.70;99.90;;;;;;5042630;28;20060;-80
2022/10/02 06:30:18;;;;;;;19.00;5.75;;;11.10;99.90;;;;;;5042877;28;20049;-79
2022/10/02 06:33:23;;;;;;;21.45;5.18;;;11.10;99.90;;;;;;5031903;28;20080;-81
2022/10/02 06:36:11;;;;;;;16.33;4.78;;;11.30;99.90;;;;;;5024087;28;20053;-81
2022/10/02 06:39:05;;;;;;;16.48;3.92;;;11.50;99.90;;;;;;5032363;28;20496;-81
2022/10/02 06:41:56;;;;;;;19.40;4.10;;;11.50;99.90;;;;;;5042582;28;20041;-78
2022/10/02 06:44:47;;;;;;;18.52;4.03;;;11.50;99.90;;;;;;5050987;28;20040;-82
2022/10/02 06:47:35;;;;;;;20.00;4.70;;;11.40;99.90;;;;;;5039758;28;20049;-80
2022/10/02 06:50:31;;;;;;;19.02;3.92;;;11.50;99.90;;;;;;5050170;28;20037;-83
2022/10/02 06:53:03;;;;;;;19.48;4.53;;;11.50;99.90;;;;;;5051180;28;20048;-81
2022/10/02 06:55:41;;;;;;;18.00;4.00;;;11.50;99.90;;;;;;5031344;28;20052;-80
2022/10/02 06:58:41;;;;;;;23.98;4.38;;;11.50;99.90;;;;;;5024470;28;20128;-82
2022/10/02 07:01:24;;;;;;;17.25;3.83;;;11.60;99.90;;;;;;5024338;28;20079;-82
2022/10/02 07:04:24;;;;;;;18.38;3.60;;;11.70;99.90;;;;;;5023873;28;20393;-81
2022/10/02 07:07:15;;;;;;;17.75;4.03;;;12.10;99.90;;;;;;5020797;28;20041;-79
2022/10/02 07:10:06;;;;;;;17.02;3.60;;;11.80;99.90;;;;;;5033212;28;20037;-81
2022/10/02 07:13:06;;;;;;;18.50;3.92;;;11.80;99.90;;;;;;5048623;28;20053;-81
2022/10/02 07:16:08;;;;;;;17.50;4.05;;;11.90;99.90;;;;;;5031980;28;20053;-79
2022/10/02 07:18:43;;;;;;;16.80;3.90;;;11.90;99.90;;;;;;5016347;28;20053;-81
2022/10/02 07:21:33;;;;;;;19.05;3.67;;;12.00;99.90;;;;;;5050198;28;20041;-81
2022/10/02 07:24:36;;;;;;;19.65;4.15;;;12.10;99.90;;;;;;5016540;28;20116;-82
2022/10/02 07:27:27;;;;;;;24.48;4.53;;;12.20;99.90;;;;;;5032712;28;20528;-81
2022/10/02 07:30:09;;;;;;;18.17;4.00;;;12.20;99.90;;;;;;5038008;28;20049;-80
2022/10/02 07:32:48;;;;;;;20.98;4.07;;;12.30;99.90;;;;;;5026775;28;20036;-81
2022/10/02 07:35:39;;;;;;;18.95;3.90;;;12.70;99.90;;;;;;5015712;28;20090;-83
2022/10/02 07:38:42;;;;;;;17.20;3.80;;;12.50;99.90;;;;;;5041883;28;20068;-84
2022/10/02 07:41:26;;;;;;;;;;;12.70;99.90;;;;;;5023309;28;20348;-83
2022/10/02 07:44:14;;;;;;;17.50;3.67;;;12.80;99.90;;;;;;5044951;28;20135;-79
2022/10/02 07:46:49;;;;;;;15.30;3.67;;;12.90;99.90;;;;;;5028002;28;20053;-82
2022/10/02 07:49:53;;;;;;;15.73;3.40;;;13.00;99.90;;;;;;5028250;28;20087;-81
2022/10/02 07:52:40;;;;;;;19.17;3.80;;;13.20;99.90;;;;;;5050938;28;20420;-83
2022/10/02 07:55:21;;;;;;;17.35;3.63;;;13.40;99.90;;;;;;5043307;28;20033;-81
2022/10/02 07:58:08;;;;;;;13.70;3.13;;;13.60;99.90;;;;;;5038120;28;20180;-81
2022/10/02 08:00:42;;;;;;;16.13;3.35;;;13.80;99.90;;;;;;5029047;28;20477;-83
2022/10/02 08:03:14;;;;;;;13.05;2.92;;;13.90;99.90;;;;;;5027214;28;20048;-81
2022/10/02 08:05:51;;;;;;;17.38;3.13;;;13.90;99.90;;;;;;5024883;28;20049;-82
2022/10/02 08:08:38;;;;;;;15.52;3.28;;;14.00;99.90;;;;;;5027472;28;20131;-82
2022/10/02 08:11:06;;;;;;;15.63;2.95;;;14.00;99.90;;;;;;5023731;28;20048;-80
2022/10/02 08:13:38;;;;;;;16.38;3.15;;;14.10;99.90;;;;;;5023163;28;20085;-81
2022/10/02 08:16:06;;;;;;;15.48;2.97;;;14.00;99.90;;;;;;5042148;28;20063;-83
2022/10/02 08:18:46;;;;;;;14.88;3.00;;;14.00;99.90;;;;;;5033506;28;20122;-81
2022/10/02 08:21:19;;;;;;;16.98;3.25;;;14.00;99.90;;;;;;5028356;28;20051;-80
2022/10/02 08:24:05;;;;;;;17.35;3.50;;;14.00;99.90;;;;;;5042167;28;21010;-82
2022/10/02 08:26:46;;;;;;;13.57;3.20;;;14.00;99.90;;;;;;5011842;28;20049;-78
2022/10/02 08:29:22;;;;;;;12.60;3.08;;;14.10;99.90;;;;;;5027745;28;20597;-81
2022/10/02 08:31:50;;;;;;;13.43;3.20;;;14.10;99.90;;;;;;5027793;28;20053;-78
2022/10/02 08:34:19;;;;;;;13.93;2.85;;;14.20;99.90;;;;;;5019321;28;20593;-77
2022/10/02 08:37:28;;;;;;;15.65;3.40;;;14.20;99.90;;;;;;5027450;28;20061;-78
2022/10/02 08:40:15;;;;;;;14.73;3.15;;;14.30;99.90;;;;;;5005859;28;20401;-78
2022/10/02 08:43:20;;;;;;;16.65;3.47;;;14.30;99.90;;;;;;5027071;28;20164;-79
2022/10/02 08:46:01;;;;;;;15.93;2.97;;;14.40;99.90;;;;;;5038457;28;20056;-78
2022/10/02 08:48:56;;;;;;;16.48;3.20;;;14.50;99.90;;;;;;5034400;28;20048;-78
2022/10/02 08:51:43;;;;;;;14.73;3.40;;;14.50;99.90;;;;;;5013959;28;20092;-77
2022/10/02 08:54:48;;;;;;;11.85;3.00;;;14.70;99.90;;;;;;5020180;28;20135;-79
2022/10/02 08:57:42;;;;;;;16.58;3.05;;;14.90;99.90;;;;;;5027014;28;20048;-78
2022/10/02 09:00:13;;;;;;;14.90;3.22;;;15.20;99.90;;;;;;5043037;28;20473;-81
2022/10/02 09:03:12;;;;;;;15.90;3.38;;;15.20;99.90;;;;;;5017996;28;20542;-78
2022/10/02 09:06:05;;;;;;;16.55;2.95;;;15.30;99.90;;;;;;5018648;28;20064;-81
2022/10/02 09:09:03;;;;;;;13.60;2.72;;;15.40;99.90;;;;;;5027160;28;20098;-82
2022/10/02 09:11:36;;;;;;;16.48;3.20;;;15.50;99.90;;;;;;4999415;28;20069;-79
2022/10/02 09:14:20;;;;;;;16.00;2.80;;;15.60;99.90;;;;;;5041902;28;20083;-77
2022/10/02 09:17:39;;;;;;;15.60;3.20;;;15.80;99.90;;;;;;5029658;28;20044;-81
2022/10/02 09:20:33;;;;;;;16.67;3.10;;;15.90;99.90;;;;;;4946683;28;20476;-81
2022/10/02 09:23:35;;;;;;;14.02;3.10;;;16.00;99.90;;;;;;5010142;28;20054;-76
2022/10/02 09:26:18;;;;;;;;;;;16.10;99.90;;;;;;5011206;28;20050;-81
2022/10/02 09:28:56;;;;;;;14.32;2.75;;;16.10;99.90;;;;;;4995023;28;19922;-85
2022/10/02 09:31:46;;;;;;;15.50;3.25;;;16.10;99.90;;;;;;5002916;28;20053;-74
2022/10/02 09:34:15;;;;;;;12.40;2.83;;;16.10;99.90;;;;;;4992564;28;20097;-76
2022/10/02 09:37:18;;;;;;;15.52;2.95;;;16.30;99.90;;;;;;4999835;28;20052;-73
2022/10/02 09:40:13;;;;;;;11.60;2.63;;;16.40;99.90;;;;;;4988327;28;20050;-73
2022/10/02 09:42:51;;;;;;;13.38;2.80;;;16.50;99.90;;;;;;5027106;28;20045;-78
2022/10/02 09:45:35;;;;;;;12.65;3.00;;;16.30;99.90;;;;;;4994546;28;20034;-76
2022/10/02 09:48:21;;;;;;;15.90;3.47;;;16.20;99.90;;;;;;5010278;28;20069;-78
2022/10/02 09:51:17;;;;;;;13.45;3.20;;;16.00;99.90;;;;;;5005043;28;20046;-77
2022/10/02 09:53:48;;;;;;;12.43;2.90;;;15.90;99.90;;;;;;5005724;28;20069;-78
2022/10/02 09:56:44;;;;;;;14.18;3.60;;;15.90;99.90;;;;;;5004431;28;20050;-78
2022/10/02 09:59:17;;;;;;;13.07;2.90;;;15.90;99.90;;;;;;5027891;28;20152;-78
2022/10/02 10:02:20;;;;;;;12.43;2.67;;;15.90;99.90;;;;;;5010013;28;20042;-78
2022/10/02 10:04:51;;;;;;;15.20;3.80;;;16.20;99.90;;;;;;5026635;28;20490;-77
2022/10/02 10:07:45;;;;;;;15.07;3.35;;;16.50;99.90;;;;;;5010988;28;20042;-77
2022/10/02 10:10:48;;;;;;;13.63;3.10;;;16.50;99.90;;;;;;5010322;28;20660;-74
2022/10/02 10:13:31;;;;;;;11.85;2.30;;;16.40;99.90;;;;;;5011031;28;20046;-73
2022/10/02 10:16:43;;;;;;;11.18;2.63;;;16.00;99.90;;;;;;4994094;28;20054;-75
2022/10/02 10:19:19;;;;;;;13.77;2.63;;;15.60;99.90;;;;;;5024606;28;20053;-75
2022/10/02 10:22:11;;;;;;;11.32;2.80;;;15.30;99.90;;;;;;5030725;28;20060;-76
2022/10/02 10:25:09;;;;;;;10.35;2.83;;;15.00;99.90;;;;;;5011224;28;20176;-71
2022/10/02 10:28:00;;;;;;;10.88;2.88;;;14.90;99.90;;;;;;5024457;28;20133;-71
2022/10/02 10:31:08;;;;;;;13.63;2.88;;;14.70;99.90;;;;;;5025538;28;20053;-71
2022/10/02 10:33:40;;;;;;;12.90;3.10;;;14.50;99.90;;;;;;4992818;28;20050;-73
2022/10/02 10:38:31;;;;;;;12.30;3.00;;;14.50;99.90;;;;;;5015310;28;20053;-73
2022/10/02 10:39:18;;;;;;;11.88;2.63;;;14.50;99.90;;;;;;5018583;28;20099;-74
2022/10/02 10:42:13;;;;;;;13.00;2.75;;;14.50;99.90;;;;;;5015178;28;20046;-74
2022/10/02 10:45:01;;;;;;;10.43;2.67;;;14.50;99.90;;;;;;5021948;28;21966;-75
2022/10/02 10:47:34;;;;;;;14.20;2.97;;;14.60;99.90;;;;;;5020253;28;20056;-75
2022/10/02 10:50:38;;;;;;;15.57;3.50;;;14.60;99.90;;;;;;5025686;28;20049;-76
2022/10/02 10:53:36;;;;;;;12.80;3.10;;;14.70;99.90;;;;;;4994094;28;20046;-77
2022/10/02 10:56:20;;;;;;;18.80;5.45;;;14.80;99.90;;;;;;5014246;28;20050;-77
2022/10/02 10:59:21;;;;;;;15.07;4.90;;;14.90;99.90;;;;;;5019924;28;20123;-79
2022/10/02 11:02:17;;;;;;;14.18;3.17;;;14.90;99.90;;;;;;5018473;28;20134;-80
2022/10/02 11:04:52;;;;;;;14.05;3.28;;;15.20;99.90;;;;;;5021858;28;20388;-82
2022/10/02 11:08:05;;;;;;;12.48;2.80;;;15.50;99.90;;;;;;5020564;28;20067;-78
2022/10/02 11:10:43;;;;;;;13.90;3.00;;;15.70;99.90;;;;;;5028628;28;20072;-80
2022/10/02 11:13:11;;;;;;;13.23;3.47;;;15.80;99.90;;;;;;5013425;28;20354;-83
2022/10/02 11:16:14;;;;;;;15.95;3.60;;;15.90;99.90;;;;;;5008396;28;20136;-85
2022/10/02 11:18:46;;;;;;;14.95;3.50;;;16.10;99.90;;;;;;5036925;28;20121;-84
2022/10/02 11:21:44;;;;;;;14.73;3.38;;;16.20;99.90;;;;;;5041500;28;20095;-81
2022/10/02 11:24:23;;;;;;;16.17;3.22;;;16.40;99.90;;;;;;5032663;28;20535;-84
2022/10/02 11:27:27;;;;;;;16.17;2.85;;;16.50;99.90;;;;;;5031421;28;20448;-79
2022/10/02 11:30:19;;;;;;;15.68;3.28;;;16.70;99.90;;;;;;5035737;28;20049;-85
2022/10/02 11:32:54;;;;;;;13.63;2.92;;;16.90;99.90;;;;;;5024636;28;20540;-81
2022/10/02 11:35:53;;;;;;;14.40;2.90;;;16.90;99.90;;;;;;4999461;28;20065;-80
2022/10/02 11:38:44;;;;;;;15.05;3.05;;;16.70;99.90;;;;;;5007931;28;20105;-83
2022/10/02 11:41:31;;;;;;;12.60;2.67;;;16.60;99.90;;;;;;5018199;28;20405;-83
2022/10/02 11:44:11;;;;;;;12.23;2.47;;;16.40;99.90;;;;;;5012556;28;20398;-83
2022/10/02 11:46:59;;;;;;;14.88;3.00;;;16.30;99.90;;;;;;5014150;28;20428;-82
2022/10/02 11:49:57;;;;;;;14.00;3.10;;;16.00;99.90;;;;;;5016546;28;20042;-77
2022/10/02 11:52:40;;;;;;;16.45;3.15;;;16.00;99.90;;;;;;5016939;28;20076;-81
2022/10/02 11:55:08;;;;;;;;;;;15.90;99.90;;;;;;5018515;28;20049;-85
2022/10/02 11:57:56;;;;;;;11.55;2.50;;;15.80;99.90;;;;;;4923639;28;19929;-84
2022/10/02 12:00:50;;;;;;;16.00;2.80;;;15.70;99.90;;;;;;4988003;28;20061;-84
2022/10/02 12:03:24;;;;;;;12.70;2.88;;;15.60;99.90;;;;;;4998243;28;20058;-80
2022/10/02 12:06:14;;;;;;;14.73;2.80;;;15.60;99.90;;;;;;5011185;28;20045;-79
2022/10/02 12:09:08;;;;;;;13.02;2.70;;;15.60;99.90;;;;;;5000067;28;20474;-83
2022/10/02 12:11:34;;;;;;;12.32;2.60;;;15.60;99.90;;;;;;5029677;28;20052;-78
2022/10/02 12:14:21;;;;;;;14.73;3.28;;;15.70;99.90;;;;;;5030598;28;20037;-82
2022/10/02 12:17:04;;;;;;;13.50;2.67;;;15.60;99.90;;;;;;5014174;28;20045;-81
2022/10/02 12:26:57;;;;;;;13.38;2.72;;;15.50;99.90;;;;;;5010265;28;20060;-79
2022/10/02 12:29:02;;;;;;;13.05;3.03;;;15.80;99.90;;;;;;5040032;22;20069;-75
2022/10/02 12:31:50;;;;;;;16.67;3.03;;;16.10;99.90;;;;;;4993936;28;20552;-75
2022/10/02 12:34:37;;;;;;;16.58;3.10;;;16.30;99.90;;;;;;4994139;28;20516;-76
2022/10/02 12:37:25;;;;;;;13.88;3.00;;;16.40;99.90;;;;;;5000000;28;20104;-75
2022/10/02 12:40:30;;;;;;;13.43;2.95;;;16.50;99.90;;;;;;4983135;28;20532;-76
2022/10/02 12:43:09;;;;;;;14.80;2.70;;;16.30;99.90;;;;;;4978847;28;20545;-76
2022/10/02 12:45:57;;;;;;;11.25;2.58;;;16.10;99.90;;;;;;4981553;28;20053;-75
2022/10/02 12:48:53;;;;;;;12.40;2.63;;;16.00;99.90;;;;;;4986723;28;20042;-75
2022/10/02 12:51:33;;;;;;;13.40;2.70;;;15.70;99.90;;;;;;4976894;28;20035;-75
2022/10/02 12:54:35;;;;;;;13.88;3.05;;;15.60;99.90;;;;;;4980633;28;20489;-75
2022/10/02 13:00:46;;;;;;;15.10;2.92;;;15.40;99.90;;;;;;4992074;28;20053;-76
2022/10/02 13:03:45;;;;;;;13.55;3.20;;;15.40;99.90;;;;;;4999251;28;20092;-75
2022/10/02 13:06:33;;;;;;;11.57;2.60;;;15.50;99.90;;;;;;4980700;28;20509;-75
2022/10/02 13:09:20;;;;;;;12.80;2.65;;;15.60;99.90;;;;;;4977186;28;20070;-75
2022/10/02 13:11:55;;;;;;;12.32;2.60;;;15.80;99.90;;;;;;4991614;28;20133;-75
2022/10/02 13:14:40;;;;;;;13.90;3.40;;;16.00;99.90;;;;;;4969142;28;20100;-75
2022/10/02 13:17:13;;;;;;;14.45;3.22;;;16.10;99.90;;;;;;4984370;28;20090;-75
2022/10/02 13:19:47;;;;;;;12.27;2.80;;;16.20;99.90;;;;;;4976531;28;20493;-75
2022/10/02 13:22:21;;;;;;;12.80;3.25;;;16.40;99.90;;;;;;4975374;28;20047;-75
2022/10/02 13:25:17;;;;;;;14.35;2.95;;;16.50;99.90;;;;;;4968777;28;20497;-76
2022/10/02 13:28:08;;;;;;;11.80;2.58;;;16.50;99.90;;;;;;4982413;28;20035;-75
2022/10/02 13:31:01;;;;;;;13.80;2.95;;;16.60;99.90;;;;;;4931214;28;20486;-75
2022/10/02 13:33:39;;;;;;;11.02;2.53;;;16.60;99.90;;;;;;4970940;28;20050;-75
2022/10/02 13:36:23;;;;;;;13.32;2.83;;;16.50;99.90;;;;;;4975064;28;20073;-76
2022/10/02 13:39:20;;;;;;;11.95;2.25;;;16.40;99.90;;;;;;4923094;28;20061;-77
2022/10/02 13:42:16;;;;;;;14.25;2.42;;;16.30;99.90;;;;;;4955873;28;20059;-76
2022/10/02 13:45:28;;;;;;;13.95;2.72;;;16.10;99.90;;;;;;4968380;28;20451;-76
2022/10/02 13:48:00;;;;;;;11.88;3.00;;;16.00;99.90;;;;;;4920012;28;20079;-77
2022/10/02 13:50:36;;;;;;;;;;;16.10;99.90;;;;;;4983850;28;20106;-76
2022/10/02 13:53:14;;;;;;;12.93;4.10;;;16.10;99.90;;;;;;4960488;28;20267;-77
2022/10/02 13:55:56;;;;;;;12.07;2.70;;;16.10;99.90;;;;;;4982564;28;20047;-76
2022/10/02 13:58:36;;;;;;;15.57;3.80;;;16.30;99.90;;;;;;4964500;28;20046;-76
2022/10/02 14:01:30;;;;;;;11.10;3.17;;;16.30;99.90;;;;;;4979636;28;20474;-77
2022/10/02 14:04:12;;;;;;;12.45;2.67;;;16.30;99.90;;;;;;4961312;28;20035;-76
2022/10/02 14:07:00;;;;;;;10.45;2.58;;;16.40;99.90;;;;;;4981944;28;20062;-76